Main page
METAR-TAF:

METAR-TAF

Airports :

Reus Airport

Reus, Spain

latitude: 41-09N, longitude: 001-10E, elevation: 71 m

Current weather observation

The report was made 17 minutes ago, at 23:00 UTC
Wind 5 kt from the North, varying between Northwest and Northeast
Temperature 12°C
Humidity 82%
Pressure 1023 hPa
Visibility 10 km or more
no clouds below 1500 m and no cumulonimbus

METAR: LERS 282300Z AUTO 01005KT 320V040 CAVOK 12/09 Q1023

Time: 00:17 (23:17 UTC)

Forecast

The report was made 3 hours and 17 minutes ago, at 20:00 UTC
Forecast valid from 28 at 21 UTC to 29 at 21 UTC
Wind 3 kt from variable directions
Visibility 10 km or more
Few clouds at a height of 2500 ft
Becoming
from 29 at 10 UTC to 29 at 13 UTC
Wind 6 kt from the Southeast

TAF: LERS 282000Z 2821/2921 VRB03KT 9999 FEW025 TX22/2912Z TN10/2906Z BECMG 2910/2913 14006KT

Weather observations and forecasts of more than 4000 airports (METAR and TAF reports).

The available stations are represented by yellow and red dots on the map.

Hover mouse over dot to see the name of the station.

Then click to see weather observations and forecasts.

To change the map : click on the green buttons with a black cross to zoom in, on the green button with a dash to zoom out, or on the green arrows for adjacent maps.


METAR-TAF: